Campbell Foss — WDC7754 — position and weather

sailwx.info

Track history (hours):
 
Tides and Currents Weather Stations Pressure Air Temp Water Temp Dewpoint Dewpoint Depression Visibility Wind Speed Wind Dir Waves Ship Positions

Campbell Foss

Owner: Foss Maritime Co., Seattle, WA. More information available from US FCC via Universal Licensing System and Coast Guard Vessel Documentation Center.

Last reported at 2016-Aug-25 17:30 UTC. Time now 2016-Aug-25 18:28 UTC.
Position N 33°46' W 118°13'.

Length 23 m; draft 16 m.

Type: Tug. MMSI: 367076360.

Date/timePositionNaut miles runAvg speedWind from/ knotsBaromVisibWave heightAir tempDewpointWater temp
2016-Aug-25 17:30N 33°46' W 118°13'3 2.9
2016-Aug-25 16:34N 33°45' W 118°16'1 0.7
2016-Aug-25 15:31N 33°46' W 118°16'3 2.5
2016-Aug-25 14:26N 33°43' W 118°16'1 0.7
2016-Aug-25 13:29N 33°44' W 118°16'1 0.9
2016-Aug-25 12:17N 33°43' W 118°15'3 1.7
2016-Aug-25 10:32N 33°45' W 118°13'2 2.1
2016-Aug-25 09:33N 33°44' W 118°12'2 1.9
2016-Aug-25 08:20N 33°46' W 118°13'0 0.0
2016-Aug-25 06:20N 33°46' W 118°13'1 0.3
2016-Aug-25 04:20N 33°46' W 118°13'0 0.0
2016-Aug-25 03:33N 33°46' W 118°13'0 0.0
2016-Aug-25 02:34N 33°46' W 118°13'0 0.0
2016-Aug-25 01:33N 33°46' W 118°13'1 1.3
2016-Aug-25 00:33N 33°45' W 118°13'3 2.6
2016-Aug-24 23:33N 33°46' W 118°16'2 2.0
2016-Aug-24 22:34N 33°44' W 118°16'3 2.7
2016-Aug-24 21:33N 33°44' W 118°13'2 1.6
2016-Aug-24 20:26N 33°46' W 118°13'0 0.0
2016-Aug-24 19:33N 33°46' W 118°13'1 0.3
2016-Aug-24 17:24N 33°46' W 118°13'3 4.1
2016-Aug-24 16:33N 33°43' W 118°16'1 0.8
2016-Aug-24 15:34N 33°44' W 118°16'1 0.7
2016-Aug-24 14:33N 33°43' W 118°16'2 1.8
2016-Aug-24 13:34N 33°42' W 118°14'2 1.3
2016-Aug-24 12:21N 33°43' W 118°16'3 3.3
2016-Aug-24 11:33N 33°46' W 118°17'1 0.6
2016-Aug-24 10:03N 33°46' W 118°16'0 0.0
2016-Aug-24 09:27N 33°46' W 118°16'0 0.0
2016-Aug-24 08:25N 33°46' W 118°16'0 0.0
2016-Aug-24 07:34N 33°46' W 118°16'2 2.1
2016-Aug-24 06:33N 33°46' W 118°13'0 0.1
2016-Aug-24 03:13N 33°46' W 118°13'3 4.5
2016-Aug-24 02:32N 33°44' W 118°10'3 2.7
2016-Aug-24 01:32N 33°46' W 118°13'1 0.7
2016-Aug-24 00:34N 33°45' W 118°13'2 2.5
2016-Aug-23 23:34N 33°45' W 118°16'1 0.7
2016-Aug-23 22:33N 33°46' W 118°16'2 2.5
2016-Aug-23 21:34N 33°46' W 118°13'0 0.0
2016-Aug-23 20:31N 33°46' W 118°13'0 0.0
2016-Aug-23 19:33N 33°46' W 118°13'0 0.0
2016-Aug-23 18:26N 33°46' W 118°13'0 0.0
2016-Aug-23 17:30N 33°46' W 118°13'1 1.3
2016-Aug-23 16:33N 33°45' W 118°13'0 0.3
2016-Aug-23 15:34N 33°45' W 118°13'0 0.0
2016-Aug-23 14:33N 33°45' W 118°13'5 3.8
2016-Aug-23 13:10N 33°41' W 118°10'1 2.1
2016-Aug-23 12:28N 33°42' W 118°12'4 3.0
2016-Aug-23 11:18N 33°44' W 118°15'1 1.8
2016-Aug-23 10:32N 33°43' W 118°15'2 2.2
2016-Aug-23 09:33N 33°44' W 118°17'1 0.8
2016-Aug-23 08:33N 33°45' W 118°16'1 0.7
2016-Aug-23 07:26N 33°46' W 118°16'2 1.8
2016-Aug-23 06:14N 33°46' W 118°13'0 0.0
2016-Aug-23 05:34N 33°46' W 118°13'2 2.0
2016-Aug-23 04:34N 33°44' W 118°14'3 3.2
2016-Aug-23 03:34N 33°45' W 118°17'1 0.6
2016-Aug-23 02:34N 33°45' W 118°16'0 0.0
2016-Aug-23 01:33N 33°45' W 118°16'2 2.5
2016-Aug-23 00:33N 33°43' W 118°15'3 2.8
2016-Aug-22 23:33N 33°45' W 118°13'1 0.6
2016-Aug-22 22:32N 33°46' W 118°13'3 2.8
2016-Aug-22 21:34N 33°45' W 118°16'1 0.8
2016-Aug-22 20:33N 33°44' W 118°17'3 2.9
2016-Aug-22 19:34N 33°45' W 118°13'2 0.6
2016-Aug-22 16:33N 33°46' W 118°15'1 0.7
2016-Aug-22 15:34N 33°46' W 118°15'0 0.0
2016-Aug-22 14:33N 33°46' W 118°15'1 1.3
2016-Aug-22 13:33N 33°46' W 118°14'2 1.7
2016-Aug-22 12:32N 33°45' W 118°12'2 1.8
2016-Aug-22 11:34N 33°44' W 118°11'1 0.3
2016-Aug-22 08:12N 33°44' W 118°12'4 5.9
2016-Aug-22 07:33N 33°44' W 118°17'3 3.1
2016-Aug-22 06:33N 33°46' W 118°13'0 0.0
2016-Aug-22 05:33N 33°46' W 118°13'2 1.5
2016-Aug-22 04:06N 33°46' W 118°16'0 0.0
2016-Aug-22 03:33N 33°46' W 118°16'0 0.0
2016-Aug-22 02:32N 33°46' W 118°16'1 0.8
2016-Aug-22 01:33N 33°45' W 118°16'0 0.0
2016-Aug-22 00:33N 33°45' W 118°16'3 2.9
2016-Aug-21 23:34N 33°43' W 118°15'1 0.7
2016-Aug-21 22:34N 33°43' W 118°14'2 2.4
2016-Aug-21 21:33N 33°45' W 118°13'1 1.1
2016-Aug-21 20:33N 33°44' W 118°12'1 1.5
2016-Aug-21 19:33N 33°46' W 118°13'0 0.0
2016-Aug-21 18:33N 33°46' W 118°13'0 0.0
2016-Aug-21 17:33N 33°46' W 118°13'2 1.9
2016-Aug-21 16:33N 33°46' W 118°15'1 0.5
2016-Aug-21 15:33N 33°45' W 118°16'1 0.6
2016-Aug-21 14:33N 33°46' W 118°16'1 0.5
2016-Aug-21 13:06N 33°45' W 118°16'0 0.2
2016-Aug-21 12:34N 33°45' W 118°16'0 0.3
2016-Aug-21 11:33N 33°45' W 118°17'1 0.8
2016-Aug-21 10:33N 33°46' W 118°16'0 0.0
2016-Aug-21 09:33N 33°46' W 118°16'0 0.0
2016-Aug-21 08:28N 33°46' W 118°16'0 0.1
2016-Aug-21 07:31N 33°46' W 118°16'2 2.2
2016-Aug-21 06:34N 33°46' W 118°13'0 0.0
2016-Aug-21 05:34N 33°46' W 118°13'1 0.7
2016-Aug-21 04:34N 33°46' W 118°14'3 3.5
2016-Aug-21 03:34N 33°43' W 118°16'1 1.4
2016-Aug-21 02:32N 33°44' W 118°17'1 1.1
2016-Aug-21 01:34N 33°45' W 118°16'1 0.7
2016-Aug-21 00:33N 33°46' W 118°16'1 0.7
2016-Aug-20 23:33N 33°45' W 118°16'1 0.6
2016-Aug-20 22:33N 33°45' W 118°17'0 0.3
2016-Aug-20 21:33N 33°45' W 118°17'4 4.2
2016-Aug-20 20:31N 33°42' W 118°13'4 3.7
2016-Aug-20 19:32N 33°46' W 118°13'3 1.5
2016-Aug-20 17:15N 33°43' W 118°15'1 0.8
2016-Aug-20 16:33N 33°43' W 118°16'0 0.4
2016-Aug-20 15:33N 33°43' W 118°16'2 1.9
2016-Aug-20 14:34N 33°45' W 118°16'1 0.6
2016-Aug-20 13:34N 33°45' W 118°16'0 0.2
2016-Aug-20 12:33N 33°45' W 118°16'0 0.0
2016-Aug-20 11:32N 33°45' W 118°16'2 1.7
2016-Aug-20 10:30N 33°43' W 118°16'2 1.4
2016-Aug-20 09:14N 33°45' W 118°16'0 0.0
2016-Aug-20 08:33N 33°45' W 118°16'1 0.9
2016-Aug-20 07:31N 33°46' W 118°15'2 1.8
2016-Aug-20 06:34N 33°46' W 118°13'1 0.3
2016-Aug-20 04:12N 33°45' W 118°13'1 2.2
2016-Aug-20 03:31N 33°46' W 118°14'2 2.1
2016-Aug-20 02:34N 33°45' W 118°17'0 0.3
2016-Aug-20 01:34N 33°45' W 118°16'1 0.6
2016-Aug-20 00:34N 33°45' W 118°16'1 1.1
2016-Aug-19 23:34N 33°46' W 118°17'1 1.2
2016-Aug-19 22:33N 33°45' W 118°17'1 0.7
2016-Aug-19 21:34N 33°45' W 118°16'1 1.3
2016-Aug-19 20:34N 33°46' W 118°15'1 1.4
2016-Aug-19 19:33N 33°46' W 118°13'0 0.2
2016-Aug-19 18:33N 33°45' W 118°13'1 0.6
2016-Aug-19 17:31N 33°46' W 118°13'2 1.0
2016-Aug-19 15:31N 33°46' W 118°16'0 0.1
2016-Aug-19 14:30N 33°46' W 118°16'3 2.9
2016-Aug-19 13:31N 33°45' W 118°12'2 1.9
2016-Aug-19 12:33N 33°43' W 118°11'3 3.3
2016-Aug-19 11:31N 33°43' W 118°15'3 3.3
2016-Aug-19 10:33N 33°46' W 118°16'4 3.7
2016-Aug-19 09:31N 33°43' W 118°12'2 2.0
2016-Aug-19 08:30N 33°44' W 118°10'3 2.4
2016-Aug-19 07:05N 33°46' W 118°13'4 1.5
2016-Aug-19 04:33N 33°44' W 118°09'6 5.7
2016-Aug-19 03:32N 33°44' W 118°16'2 1.7
2016-Aug-19 02:09N 33°46' W 118°16'2 3.5
2016-Aug-19 01:34N 33°46' W 118°13'1 0.7
2016-Aug-19 00:34N 33°46' W 118°14'2 2.3
2016-Aug-18 23:33N 33°46' W 118°17'3 2.8
2016-Aug-18 22:34N 33°43' W 118°16'3 2.7
2016-Aug-18 21:28N 33°46' W 118°16'1 0.6
2016-Aug-18 20:33N 33°45' W 118°16'2 1.7
2016-Aug-18 19:33N 33°46' W 118°14'1 0.8
2016-Aug-18 18:27N 33°46' W 118°13'3 3.4
2016-Aug-18 17:33N 33°43' W 118°14'3 1.4
2016-Aug-18 15:33N 33°46' W 118°16'1 0.9
2016-Aug-18 14:33N 33°45' W 118°16'0 0.5
2016-Aug-18 13:34N 33°45' W 118°16'1 0.6
2016-Aug-18 12:33N 33°46' W 118°16'1 0.6
2016-Aug-18 11:33N 33°45' W 118°16'1 0.7
2016-Aug-18 10:33N 33°45' W 118°16'3 2.7
2016-Aug-18 09:34N 33°43' W 118°14'1 0.9
2016-Aug-18 08:34N 33°43' W 118°14'2 2.1
2016-Aug-18 07:30N 33°46' W 118°13'0 0.0
2016-Aug-18 05:34N 33°46' W 118°13'0 0.2
2016-Aug-18 04:31N 33°46' W 118°13'2 2.5
2016-Aug-18 03:33N 33°43' W 118°14'3 3.0
2016-Aug-18 02:30N 33°46' W 118°16'0 0.2
2016-Aug-18 01:34N 33°46' W 118°16'2 2.2
2016-Aug-18 00:33N 33°44' W 118°16'2 2.3
2016-Aug-17 23:33N 33°43' W 118°13'3 2.7
2016-Aug-17 22:28N 33°46' W 118°16'2 2.1
2016-Aug-17 21:33N 33°44' W 118°15'3 3.1
2016-Aug-17 20:33N 33°46' W 118°13'0 0.0
2016-Aug-17 19:34N 33°46' W 118°13'0 0.0
2016-Aug-17 18:33N 33°46' W 118°13'0 0.0
2016-Aug-17 17:31N 33°46' W 118°13'3 2.6
2016-Aug-17 16:32N 33°46' W 118°16'0 0.1
2016-Aug-17 15:31N 33°46' W 118°16'2 2.6
2016-Aug-17 14:33N 33°43' W 118°16'2 2.2
2016-Aug-17 13:33N 33°46' W 118°17'3 2.6
2016-Aug-17 12:32N 33°46' W 118°13'3 3.1
2016-Aug-17 11:31N 33°44' W 118°12'2 1.6
2016-Aug-17 10:33N 33°45' W 118°13'0 0.3
2016-Aug-17 09:32N 33°45' W 118°13'0 0.3
2016-Aug-17 08:33N 33°45' W 118°13'0 0.2
2016-Aug-17 07:33N 33°45' W 118°13'1 0.6
2016-Aug-17 06:33N 33°46' W 118°13'0 0.4
2016-Aug-17 05:34N 33°45' W 118°13'1 0.4
2016-Aug-17 03:33N 33°46' W 118°13'0 0.0
2016-Aug-17 02:33N 33°46' W 118°13'1 0.6
2016-Aug-17 01:33N 33°46' W 118°13'0 0.3
2016-Aug-17 00:33N 33°46' W 118°13'1 0.6
2016-Aug-16 23:34N 33°45' W 118°13'1 0.6
2016-Aug-16 22:34N 33°45' W 118°13'3 2.8
2016-Aug-16 21:34N 33°45' W 118°16'1 0.6
2016-Aug-16 20:33N 33°44' W 118°17'3 2.7
2016-Aug-16 19:33N 33°44' W 118°13'2 1.9
2016-Aug-16 18:34N 33°46' W 118°13'0 0.5
2016-Aug-16 17:33N 33°45' W 118°13'1 0.7
2016-Aug-16 16:33N 33°45' W 118°12'3 3.4
2016-Aug-16 15:32N 33°44' W 118°17'2 1.7
2016-Aug-16 14:34N 33°46' W 118°16'0 0.0
2016-Aug-16 13:33N 33°46' W 118°16'1 0.9
2016-Aug-16 12:34N 33°45' W 118°16'3 2.8
2016-Aug-16 11:33N 33°43' W 118°15'3 2.8
2016-Aug-16 10:34N 33°45' W 118°16'0 0.0
2016-Aug-16 09:33N 33°45' W 118°16'0 0.0
2016-Aug-16 08:33N 33°45' W 118°16'2 1.8
2016-Aug-16 07:34N 33°46' W 118°14'2 0.6
2016-Aug-16 04:34N 33°45' W 118°16'2 1.6
2016-Aug-16 03:34N 33°43' W 118°16'0 0.2
2016-Aug-16 02:33N 33°44' W 118°16'0 0.0
2016-Aug-16 01:34N 33°44' W 118°16'0 0.0
2016-Aug-16 00:33N 33°44' W 118°16'0 0.0
2016-Aug-15 23:34N 33°44' W 118°16'0 0.0
2016-Aug-15 22:34N 33°44' W 118°16'1 1.4
2016-Aug-15 21:34N 33°45' W 118°16'1 0.6
2016-Aug-15 20:34N 33°44' W 118°17'3 2.8
2016-Aug-15 19:34N 33°44' W 118°13'1 0.7
2016-Aug-15 17:33N 33°46' W 118°13'  
Track history (hours):
 
Tides and Currents Weather Stations Pressure Air Temp Water Temp Dewpoint Dewpoint Depression Visibility Wind Speed Wind Dir Waves Ship Positions

Campbell Foss

Owner: Foss Maritime Co., Seattle, WA. More information available from US FCC via Universal Licensing System and Coast Guard Vessel Documentation Center.

Last reported at 2016-Aug-25 17:30 UTC. Time now 2016-Aug-25 18:28 UTC.
Position N 33°46' W 118°13'.

Length 23 m; draft 16 m.

Type: Tug. MMSI: 367076360.

Date/timePositionNaut miles runAvg speedWind from/ knotsBaromVisibWave heightAir tempDewpointWater temp
2016-Aug-25 17:30N 33°46' W 118°13'3 2.9
2016-Aug-25 16:34N 33°45' W 118°16'1 0.7
2016-Aug-25 15:31N 33°46' W 118°16'3 2.5
2016-Aug-25 14:26N 33°43' W 118°16'1 0.7
2016-Aug-25 13:29N 33°44' W 118°16'1 0.9
2016-Aug-25 12:17N 33°43' W 118°15'3 1.7
2016-Aug-25 10:32N 33°45' W 118°13'2 2.1
2016-Aug-25 09:33N 33°44' W 118°12'2 1.9
2016-Aug-25 08:20N 33°46' W 118°13'0 0.0
2016-Aug-25 06:20N 33°46' W 118°13'1 0.3
2016-Aug-25 04:20N 33°46' W 118°13'0 0.0
2016-Aug-25 03:33N 33°46' W 118°13'0 0.0
2016-Aug-25 02:34N 33°46' W 118°13'0 0.0
2016-Aug-25 01:33N 33°46' W 118°13'1 1.3
2016-Aug-25 00:33N 33°45' W 118°13'3 2.6
2016-Aug-24 23:33N 33°46' W 118°16'2 2.0
2016-Aug-24 22:34N 33°44' W 118°16'3 2.7
2016-Aug-24 21:33N 33°44' W 118°13'2 1.6
2016-Aug-24 20:26N 33°46' W 118°13'0 0.0
2016-Aug-24 19:33N 33°46' W 118°13'1 0.3
2016-Aug-24 17:24N 33°46' W 118°13'3 4.1
2016-Aug-24 16:33N 33°43' W 118°16'1 0.8
2016-Aug-24 15:34N 33°44' W 118°16'1 0.7
2016-Aug-24 14:33N 33°43' W 118°16'2 1.8
2016-Aug-24 13:34N 33°42' W 118°14'2 1.3
2016-Aug-24 12:21N 33°43' W 118°16'3 3.3
2016-Aug-24 11:33N 33°46' W 118°17'1 0.6
2016-Aug-24 10:03N 33°46' W 118°16'0 0.0
2016-Aug-24 09:27N 33°46' W 118°16'0 0.0
2016-Aug-24 08:25N 33°46' W 118°16'0 0.0
2016-Aug-24 07:34N 33°46' W 118°16'2 2.1
2016-Aug-24 06:33N 33°46' W 118°13'0 0.1
2016-Aug-24 03:13N 33°46' W 118°13'3 4.5
2016-Aug-24 02:32N 33°44' W 118°10'3 2.7
2016-Aug-24 01:32N 33°46' W 118°13'1 0.7
2016-Aug-24 00:34N 33°45' W 118°13'2 2.5
2016-Aug-23 23:34N 33°45' W 118°16'1 0.7
2016-Aug-23 22:33N 33°46' W 118°16'2 2.5
2016-Aug-23 21:34N 33°46' W 118°13'0 0.0
2016-Aug-23 20:31N 33°46' W 118°13'0 0.0
2016-Aug-23 19:33N 33°46' W 118°13'0 0.0
2016-Aug-23 18:26N 33°46' W 118°13'0 0.0
2016-Aug-23 17:30N 33°46' W 118°13'1 1.3
2016-Aug-23 16:33N 33°45' W 118°13'0 0.3
2016-Aug-23 15:34N 33°45' W 118°13'0 0.0
2016-Aug-23 14:33N 33°45' W 118°13'5 3.8
2016-Aug-23 13:10N 33°41' W 118°10'1 2.1
2016-Aug-23 12:28N 33°42' W 118°12'4 3.0
2016-Aug-23 11:18N 33°44' W 118°15'1 1.8
2016-Aug-23 10:32N 33°43' W 118°15'2 2.2
2016-Aug-23 09:33N 33°44' W 118°17'1 0.8
2016-Aug-23 08:33N 33°45' W 118°16'1 0.7
2016-Aug-23 07:26N 33°46' W 118°16'2 1.8
2016-Aug-23 06:14N 33°46' W 118°13'0 0.0
2016-Aug-23 05:34N 33°46' W 118°13'2 2.0
2016-Aug-23 04:34N 33°44' W 118°14'3 3.2
2016-Aug-23 03:34N 33°45' W 118°17'1 0.6
2016-Aug-23 02:34N 33°45' W 118°16'0 0.0
2016-Aug-23 01:33N 33°45' W 118°16'2 2.5
2016-Aug-23 00:33N 33°43' W 118°15'3 2.8
2016-Aug-22 23:33N 33°45' W 118°13'1 0.6
2016-Aug-22 22:32N 33°46' W 118°13'3 2.8
2016-Aug-22 21:34N 33°45' W 118°16'1 0.8
2016-Aug-22 20:33N 33°44' W 118°17'3 2.9
2016-Aug-22 19:34N 33°45' W 118°13'2 0.6
2016-Aug-22 16:33N 33°46' W 118°15'1 0.7
2016-Aug-22 15:34N 33°46' W 118°15'0 0.0
2016-Aug-22 14:33N 33°46' W 118°15'1 1.3
2016-Aug-22 13:33N 33°46' W 118°14'2 1.7
2016-Aug-22 12:32N 33°45' W 118°12'2 1.8
2016-Aug-22 11:34N 33°44' W 118°11'1 0.3
2016-Aug-22 08:12N 33°44' W 118°12'4 5.9
2016-Aug-22 07:33N 33°44' W 118°17'3 3.1
2016-Aug-22 06:33N 33°46' W 118°13'0 0.0
2016-Aug-22 05:33N 33°46' W 118°13'2 1.5
2016-Aug-22 04:06N 33°46' W 118°16'0 0.0
2016-Aug-22 03:33N 33°46' W 118°16'0 0.0
2016-Aug-22 02:32N 33°46' W 118°16'1 0.8
2016-Aug-22 01:33N 33°45' W 118°16'0 0.0
2016-Aug-22 00:33N 33°45' W 118°16'3 2.9
2016-Aug-21 23:34N 33°43' W 118°15'1 0.7
2016-Aug-21 22:34N 33°43' W 118°14'2 2.4
2016-Aug-21 21:33N 33°45' W 118°13'1 1.1
2016-Aug-21 20:33N 33°44' W 118°12'1 1.5
2016-Aug-21 19:33N 33°46' W 118°13'0 0.0
2016-Aug-21 18:33N 33°46' W 118°13'0 0.0
2016-Aug-21 17:33N 33°46' W 118°13'2 1.9
2016-Aug-21 16:33N 33°46' W 118°15'1 0.5
2016-Aug-21 15:33N 33°45' W 118°16'1 0.6
2016-Aug-21 14:33N 33°46' W 118°16'1 0.5
2016-Aug-21 13:06N 33°45' W 118°16'0 0.2
2016-Aug-21 12:34N 33°45' W 118°16'0 0.3
2016-Aug-21 11:33N 33°45' W 118°17'1 0.8
2016-Aug-21 10:33N 33°46' W 118°16'0 0.0
2016-Aug-21 09:33N 33°46' W 118°16'0 0.0
2016-Aug-21 08:28N 33°46' W 118°16'0 0.1
2016-Aug-21 07:31N 33°46' W 118°16'2 2.2
2016-Aug-21 06:34N 33°46' W 118°13'0 0.0
2016-Aug-21 05:34N 33°46' W 118°13'1 0.7
2016-Aug-21 04:34N 33°46' W 118°14'3 3.5
2016-Aug-21 03:34N 33°43' W 118°16'1 1.4
2016-Aug-21 02:32N 33°44' W 118°17'1 1.1
2016-Aug-21 01:34N 33°45' W 118°16'1 0.7
2016-Aug-21 00:33N 33°46' W 118°16'1 0.7
2016-Aug-20 23:33N 33°45' W 118°16'1 0.6
2016-Aug-20 22:33N 33°45' W 118°17'0 0.3
2016-Aug-20 21:33N 33°45' W 118°17'4 4.2
2016-Aug-20 20:31N 33°42' W 118°13'4 3.7
2016-Aug-20 19:32N 33°46' W 118°13'3 1.5
2016-Aug-20 17:15N 33°43' W 118°15'1 0.8
2016-Aug-20 16:33N 33°43' W 118°16'0 0.4
2016-Aug-20 15:33N 33°43' W 118°16'2 1.9
2016-Aug-20 14:34N 33°45' W 118°16'1 0.6
2016-Aug-20 13:34N 33°45' W 118°16'0 0.2
2016-Aug-20 12:33N 33°45' W 118°16'0 0.0
2016-Aug-20 11:32N 33°45' W 118°16'2 1.7
2016-Aug-20 10:30N 33°43' W 118°16'2 1.4
2016-Aug-20 09:14N 33°45' W 118°16'0 0.0
2016-Aug-20 08:33N 33°45' W 118°16'1 0.9
2016-Aug-20 07:31N 33°46' W 118°15'2 1.8
2016-Aug-20 06:34N 33°46' W 118°13'1 0.3
2016-Aug-20 04:12N 33°45' W 118°13'1 2.2
2016-Aug-20 03:31N 33°46' W 118°14'2 2.1
2016-Aug-20 02:34N 33°45' W 118°17'0 0.3
2016-Aug-20 01:34N 33°45' W 118°16'1 0.6
2016-Aug-20 00:34N 33°45' W 118°16'1 1.1
2016-Aug-19 23:34N 33°46' W 118°17'1 1.2
2016-Aug-19 22:33N 33°45' W 118°17'1 0.7
2016-Aug-19 21:34N 33°45' W 118°16'1 1.3
2016-Aug-19 20:34N 33°46' W 118°15'1 1.4
2016-Aug-19 19:33N 33°46' W 118°13'0 0.2
2016-Aug-19 18:33N 33°45' W 118°13'1 0.6
2016-Aug-19 17:31N 33°46' W 118°13'2 1.0
2016-Aug-19 15:31N 33°46' W 118°16'0 0.1
2016-Aug-19 14:30N 33°46' W 118°16'3 2.9
2016-Aug-19 13:31N 33°45' W 118°12'2 1.9
2016-Aug-19 12:33N 33°43' W 118°11'3 3.3
2016-Aug-19 11:31N 33°43' W 118°15'3 3.3
2016-Aug-19 10:33N 33°46' W 118°16'4 3.7
2016-Aug-19 09:31N 33°43' W 118°12'2 2.0
2016-Aug-19 08:30N 33°44' W 118°10'3 2.4
2016-Aug-19 07:05N 33°46' W 118°13'4 1.5
2016-Aug-19 04:33N 33°44' W 118°09'6 5.7
2016-Aug-19 03:32N 33°44' W 118°16'2 1.7
2016-Aug-19 02:09N 33°46' W 118°16'2 3.5
2016-Aug-19 01:34N 33°46' W 118°13'1 0.7
2016-Aug-19 00:34N 33°46' W 118°14'2 2.3
2016-Aug-18 23:33N 33°46' W 118°17'3 2.8
2016-Aug-18 22:34N 33°43' W 118°16'3 2.7
2016-Aug-18 21:28N 33°46' W 118°16'1 0.6
2016-Aug-18 20:33N 33°45' W 118°16'2 1.7
2016-Aug-18 19:33N 33°46' W 118°14'1 0.8
2016-Aug-18 18:27N 33°46' W 118°13'3 3.4
2016-Aug-18 17:33N 33°43' W 118°14'3 1.4
2016-Aug-18 15:33N 33°46' W 118°16'1 0.9
2016-Aug-18 14:33N 33°45' W 118°16'0 0.5
2016-Aug-18 13:34N 33°45' W 118°16'1 0.6
2016-Aug-18 12:33N 33°46' W 118°16'1 0.6
2016-Aug-18 11:33N 33°45' W 118°16'1 0.7
2016-Aug-18 10:33N 33°45' W 118°16'3 2.7
2016-Aug-18 09:34N 33°43' W 118°14'1 0.9
2016-Aug-18 08:34N 33°43' W 118°14'2 2.1
2016-Aug-18 07:30N 33°46' W 118°13'0 0.0
2016-Aug-18 05:34N 33°46' W 118°13'0 0.2
2016-Aug-18 04:31N 33°46' W 118°13'2 2.5
2016-Aug-18 03:33N 33°43' W 118°14'3 3.0
2016-Aug-18 02:30N 33°46' W 118°16'0 0.2
2016-Aug-18 01:34N 33°46' W 118°16'2 2.2
2016-Aug-18 00:33N 33°44' W 118°16'2 2.3
2016-Aug-17 23:33N 33°43' W 118°13'3 2.7
2016-Aug-17 22:28N 33°46' W 118°16'2 2.1
2016-Aug-17 21:33N 33°44' W 118°15'3 3.1
2016-Aug-17 20:33N 33°46' W 118°13'0 0.0
2016-Aug-17 19:34N 33°46' W 118°13'0 0.0
2016-Aug-17 18:33N 33°46' W 118°13'0 0.0
2016-Aug-17 17:31N 33°46' W 118°13'3 2.6
2016-Aug-17 16:32N 33°46' W 118°16'0 0.1
2016-Aug-17 15:31N 33°46' W 118°16'2 2.6
2016-Aug-17 14:33N 33°43' W 118°16'2 2.2
2016-Aug-17 13:33N 33°46' W 118°17'3 2.6
2016-Aug-17 12:32N 33°46' W 118°13'3 3.1
2016-Aug-17 11:31N 33°44' W 118°12'2 1.6
2016-Aug-17 10:33N 33°45' W 118°13'0 0.3
2016-Aug-17 09:32N 33°45' W 118°13'0 0.3
2016-Aug-17 08:33N 33°45' W 118°13'0 0.2
2016-Aug-17 07:33N 33°45' W 118°13'1 0.6
2016-Aug-17 06:33N 33°46' W 118°13'0 0.4
2016-Aug-17 05:34N 33°45' W 118°13'1 0.4
2016-Aug-17 03:33N 33°46' W 118°13'0 0.0
2016-Aug-17 02:33N 33°46' W 118°13'1 0.6
2016-Aug-17 01:33N 33°46' W 118°13'0 0.3
2016-Aug-17 00:33N 33°46' W 118°13'1 0.6
2016-Aug-16 23:34N 33°45' W 118°13'1 0.6
2016-Aug-16 22:34N 33°45' W 118°13'3 2.8
2016-Aug-16 21:34N 33°45' W 118°16'1 0.6
2016-Aug-16 20:33N 33°44' W 118°17'3 2.7
2016-Aug-16 19:33N 33°44' W 118°13'2 1.9
2016-Aug-16 18:34N 33°46' W 118°13'0 0.5
2016-Aug-16 17:33N 33°45' W 118°13'1 0.7
2016-Aug-16 16:33N 33°45' W 118°12'3 3.4
2016-Aug-16 15:32N 33°44' W 118°17'2 1.7
2016-Aug-16 14:34N 33°46' W 118°16'0 0.0
2016-Aug-16 13:33N 33°46' W 118°16'1 0.9
2016-Aug-16 12:34N 33°45' W 118°16'3 2.8
2016-Aug-16 11:33N 33°43' W 118°15'3 2.8
2016-Aug-16 10:34N 33°45' W 118°16'0 0.0
2016-Aug-16 09:33N 33°45' W 118°16'0 0.0
2016-Aug-16 08:33N 33°45' W 118°16'2 1.8
2016-Aug-16 07:34N 33°46' W 118°14'2 0.6
2016-Aug-16 04:34N 33°45' W 118°16'2 1.6
2016-Aug-16 03:34N 33°43' W 118°16'0 0.2
2016-Aug-16 02:33N 33°44' W 118°16'0 0.0
2016-Aug-16 01:34N 33°44' W 118°16'0 0.0
2016-Aug-16 00:33N 33°44' W 118°16'0 0.0
2016-Aug-15 23:34N 33°44' W 118°16'0 0.0
2016-Aug-15 22:34N 33°44' W 118°16'1 1.4
2016-Aug-15 21:34N 33°45' W 118°16'1 0.6
2016-Aug-15 20:34N 33°44' W 118°17'3 2.8
2016-Aug-15 19:34N 33°44' W 118°13'1 0.7
2016-Aug-15 17:33N 33°46' W 118°13'  

Dump ship's entire track history